This is the latest recevied weather packets stored in our database for station/object AK4NG. If no packets are shown the sender has not sent any weather packets the latest 10 day(s).
| Time | Temp. | Humidity | Pressure | Rain* | Wind** | Luminosity | Snow |
|---|---|---|---|---|---|---|---|
| 1778082861 | 25° C | 76% | 1017.1 hPa | 0 mm | - | 486 W/m² | - |
| 1778081742 | 23.89° C | 77% | 1017.5 hPa | 0 mm | - | 166 W/m² | - |
| 1778081440 | 23.89° C | 78% | 1017.3 hPa | 0 mm | - | 156 W/m² | - |
| 1778081137 | 24.44° C | 77% | 1017.5 hPa | 0 mm | - | 54 W/m² | - |
| 1778080835 | 24.44° C | 76% | 1017.4 hPa | 0 mm | - | 127 W/m² | - |
| 1778080532 | 25° C | 74% | 1017.3 hPa | 0 mm | - | 138 W/m² | - |
| 1778080229 | 25° C | 74% | 1017.3 hPa | 0 mm | - | 385 W/m² | - |
| 1778079926 | 25° C | 74% | 1017.5 hPa | 0 mm | - | 341 W/m² | - |
| 1778079623 | 25° C | 74% | 1017.3 hPa | 0 mm | - | 313 W/m² | - |
| 1778079319 | 25° C | 74% | 1017.5 hPa | 0 mm | - | 448 W/m² | - |
| 1778079017 | 25.56° C | 73% | 1017.5 hPa | 0 mm | - | 298 W/m² | - |
| 1778078713 | 25° C | 75% | 1017.3 hPa | 0 mm | - | 432 W/m² | - |
| 1778078411 | 25° C | 74% | 1017.1 hPa | 0 mm | - | 466 W/m² | - |
| 1778078108 | 25° C | 74% | 1017.1 hPa | 0 mm | - | 369 W/m² | - |
| 1778077807 | 23.89° C | 79% | 1017 hPa | 0 mm | - | 708 W/m² | - |
| 1778077504 | 23.89° C | 79% | 1017.2 hPa | 0 mm | - | 237 W/m² | - |
| 1778077202 | 23.33° C | 81% | 1017 hPa | 0 mm | - | 313 W/m² | - |
| 1778076900 | 23.33° C | 81% | 1017.2 hPa | 0 mm | - | 183 W/m² | - |
| 1778076598 | 23.89° C | 80% | 1017.4 hPa | 0 mm | - | 243 W/m² | - |
| 1778076294 | 23.33° C | 80% | 1017.3 hPa | 0 mm | - | 451 W/m² | - |
| 1778075991 | 23.33° C | 81% | 1017 hPa | 0 mm | - | 274 W/m² | - |
| 1778075689 | 23.33° C | 82% | 1017.1 hPa | 0 mm | - | 366 W/m² | - |
| 1778075384 | 22.78° C | 84% | 1017.2 hPa | 0 mm | - | 261 W/m² | - |
| 1778075081 | 22.78° C | 83% | 1017.3 hPa | 0 mm | - | 208 W/m² | - |
| 1778074778 | 22.22° C | 85% | 1017.2 hPa | 0 mm | - | 211 W/m² | - |
* Rain latest hour (hover to see other rain measurements)
** Current wind speed in m/s (hover to see current wind gust speed)